Time;durP1;ratioP1;P1;durP2;ratioP2;P2;SDS_P1;SDS_P2;PMS_P1;PMS_P2;Temp;Humidity;BMP_temperature;BMP_pressure;BME280_temperature;BME280_humidity;BME280_pressure;Samples;Min_cycle;Max_cycle;Signal;HPM_P1;HPM_P2
2023/07/14 00:00:32;;;;;;;5.80;1.98;;;;;;;;;;4941995;29;20031;-92
2023/07/14 00:02:59;;;;;;;3.63;2.10;;;;;;;;;;4942079;29;20041;-96
2023/07/14 00:05:28;;;;;;;8.00;2.08;;;;;;;;;;4941897;29;20023;-95
2023/07/14 00:07:57;;;;;;;4.90;2.13;;;;;;;;;;4941609;29;20031;-93
2023/07/14 00:10:26;;;;;;;7.25;2.00;;;;;;;;;;4941872;29;20476;-94
2023/07/14 00:12:52;;;;;;;3.78;2.20;;;;;;;;;;4941916;29;20024;-94
2023/07/14 00:15:21;;;;;;;3.47;2.20;;;;;;;;;;4941643;29;20031;-94
2023/07/14 00:17:48;;;;;;;3.33;2.00;;;;;;;;;;4941809;29;20066;-95
2023/07/14 00:20:29;;;;;;;3.38;2.00;;;;;;;;;;4941306;29;20038;-93
2023/07/14 00:22:56;;;;;;;3.35;1.92;;;;;;;;;;4941508;29;20031;-93
2023/07/14 00:25:23;;;;;;;4.05;1.95;;;;;;;;;;4941326;29;20023;-95
2023/07/14 00:27:53;;;;;;;6.20;2.10;;;;;;;;;;4941494;29;20037;-92
2023/07/14 00:30:23;;;;;;;7.22;2.15;;;;;;;;;;4941253;29;20050;-94
2023/07/14 00:32:50;;;;;;;4.03;1.83;;;;;;;;;;4941561;29;20067;-95
2023/07/14 00:35:21;;;;;;;5.35;2.90;;;;;;;;;;4941776;29;20027;-94
2023/07/14 00:37:47;;;;;;;5.10;3.10;;;;;;;;;;4952626;28;20015;-93
2023/07/14 00:40:18;;;;;;;5.82;3.20;;;;;;;;;;4965224;28;20023;-94
2023/07/14 00:42:46;;;;;;;6.45;3.03;;;;;;;;;;4950506;29;20445;-94
2023/07/14 00:45:16;;;;;;;6.13;2.90;;;;;;;;;;4946208;29;20043;-95
2023/07/14 00:47:52;;;;;;;7.95;2.92;;;;;;;;;;4941629;29;20388;-94
2023/07/14 00:50:39;;;;;;;4.57;3.28;;;;;;;;;;4941822;29;20096;-94
2023/07/14 00:53:16;;;;;;;6.10;4.10;;;;;;;;;;4941380;29;20063;-93
2023/07/14 00:55:44;;;;;;;9.05;4.38;;;;;;;;;;4942526;29;20027;-94
2023/07/14 00:58:15;;;;;;;7.07;4.80;;;;;;;;;;4941457;29;20086;-93
2023/07/14 01:00:59;;;;;;;8.30;5.32;;;;;;;;;;4941622;29;20070;-94
2023/07/14 01:03:25;;;;;;;7.43;5.05;;;;;;;;;;4941955;29;20035;-92
2023/07/14 01:05:52;;;;;;;9.65;5.55;;;;;;;;;;4956538;29;20019;-94
2023/07/14 01:08:19;;;;;;;8.45;5.90;;;;;;;;;;4962829;29;20046;-92
2023/07/14 01:10:46;;;;;;;8.52;5.43;;;;;;;;;;4956441;28;20031;-93
2023/07/14 01:13:12;;;;;;;8.27;6.07;;;;;;;;;;4965067;28;20031;-92
2023/07/14 01:15:40;;;;;;;10.40;5.45;;;;;;;;;;4958352;29;20125;-93
2023/07/14 01:18:06;;;;;;;9.27;5.50;;;;;;;;;;4940464;29;20019;-93
2023/07/14 01:20:35;;;;;;;11.05;5.93;;;;;;;;;;4940354;29;20444;-92
2023/07/14 01:23:12;;;;;;;10.02;6.60;;;;;;;;;;4940357;29;20023;-93
2023/07/14 01:25:38;;;;;;;10.90;7.47;;;;;;;;;;4940321;29;20023;-93
2023/07/14 01:28:09;;;;;;;14.20;7.70;;;;;;;;;;4941016;29;20034;-94
2023/07/14 01:30:36;;;;;;;14.30;7.25;;;;;;;;;;4940551;29;20113;-93
2023/07/14 01:33:02;;;;;;;12.20;8.85;;;;;;;;;;4940445;29;20023;-94
2023/07/14 01:35:31;;;;;;;11.93;8.85;;;;;;;;;;4957505;29;20031;-93
2023/07/14 01:37:58;;;;;;;11.45;7.93;;;;;;;;;;4940193;29;20709;-94
2023/07/14 01:40:25;;;;;;;9.95;7.40;;;;;;;;;;4939977;29;20031;-92
2023/07/14 01:43:00;;;;;;;13.75;8.05;;;;;;;;;;4940343;29;20027;-94
2023/07/14 01:45:35;;;;;;;9.82;7.22;;;;;;;;;;4940271;29;20027;-93
2023/07/14 01:48:02;;;;;;;14.00;7.95;;;;;;;;;;4940344;29;20387;-94
2023/07/14 01:50:37;;;;;;;13.55;8.88;;;;;;;;;;4940234;29;20097;-92
2023/07/14 01:53:11;;;;;;;9.23;7.45;;;;;;;;;;4940939;29;20038;-93
2023/07/14 01:55:39;;;;;;;13.70;9.05;;;;;;;;;;4939876;29;20087;-93
2023/07/14 01:58:09;;;;;;;11.70;8.63;;;;;;;;;;4925424;29;20373;-93
2023/07/14 02:00:39;;;;;;;11.80;8.57;;;;;;;;;;4940490;29;20051;-93
2023/07/14 02:03:06;;;;;;;11.93;8.60;;;;;;;;;;4940415;29;20031;-94
2023/07/14 02:05:35;;;;;;;15.07;9.00;;;;;;;;;;4939810;29;20086;-93
2023/07/14 02:08:06;;;;;;;13.18;6.50;;;;;;;;;;4939342;29;20035;-93
2023/07/14 02:10:33;;;;;;;14.25;8.05;;;;;;;;;;4940274;29;20063;-92
2023/07/14 02:13:05;;;;;;;16.10;7.65;;;;;;;;;;4940748;29;20039;-93
2023/07/14 02:15:35;;;;;;;12.85;7.18;;;;;;;;;;4940661;29;20042;-94
2023/07/14 02:18:02;;;;;;;12.05;9.13;;;;;;;;;;4940838;29;20122;-94
2023/07/14 02:20:35;;;;;;;16.15;9.70;;;;;;;;;;4940367;29;20027;-92
2023/07/14 02:23:04;;;;;;;14.05;9.80;;;;;;;;;;4940296;29;20031;-94
2023/07/14 02:25:36;;;;;;;14.20;10.00;;;;;;;;;;4940097;29;20019;-94
2023/07/14 02:28:02;;;;;;;16.27;9.93;;;;;;;;;;4940480;29;20035;-94
2023/07/14 02:30:35;;;;;;;14.90;10.15;;;;;;;;;;4940011;29;20137;-95
2023/07/14 02:33:21;;;;;;;13.70;9.77;;;;;;;;;;4940718;29;20027;-96
2023/07/14 02:35:53;;;;;;;12.90;9.48;;;;;;;;;;4941261;29;20023;-93
2023/07/14 02:38:20;;;;;;;15.63;9.30;;;;;;;;;;4943717;29;20035;-94
2023/07/14 02:41:14;;;;;;;14.35;8.93;;;;;;;;;;4957263;29;20104;-95
2023/07/14 02:43:41;;;;;;;14.43;8.57;;;;;;;;;;5078399;23;20071;-95
2023/07/14 02:46:11;;;;;;;12.38;8.85;;;;;;;;;;4902669;29;20032;-96
2023/07/14 02:48:45;;;;;;;13.40;9.23;;;;;;;;;;4902765;29;20064;-94
2023/07/14 02:51:18;;;;;;;15.48;9.10;;;;;;;;;;4918250;29;20417;-95
2023/07/14 02:53:50;;;;;;;13.80;9.05;;;;;;;;;;4905296;29;20028;-93
2023/07/14 02:56:20;;;;;;;13.27;8.23;;;;;;;;;;4924870;29;20050;-94
2023/07/14 02:58:52;;;;;;;12.85;9.25;;;;;;;;;;4924085;29;20037;-94
2023/07/14 03:04:14;;;;;;;13.27;8.50;;;;;;;;;;5013958;23;20051;-96
2023/07/14 03:06:43;;;;;;;11.20;7.55;;;;;;;;;;4952746;29;20413;-96
2023/07/14 03:09:10;;;;;;;13.75;9.27;;;;;;;;;;4943001;29;20037;-96
2023/07/14 03:11:36;;;;;;;10.98;8.18;;;;;;;;;;4943733;29;20039;-95
2023/07/14 03:14:04;;;;;;;8.70;7.20;;;;;;;;;;4943850;29;20403;-96
2023/07/14 03:16:37;;;;;;;12.32;8.68;;;;;;;;;;4944976;29;20133;-96
2023/07/14 03:19:04;;;;;;;12.63;8.63;;;;;;;;;;4944239;29;20062;-96
2023/07/14 03:21:34;;;;;;;10.32;7.28;;;;;;;;;;4943301;29;20031;-96
2023/07/14 03:24:07;;;;;;;12.73;8.65;;;;;;;;;;4943937;29;20027;-95
2023/07/14 03:26:36;;;;;;;15.10;9.13;;;;;;;;;;4946882;29;20035;-95
2023/07/14 03:29:05;;;;;;;10.93;8.70;;;;;;;;;;4933127;29;20062;-96
2023/07/14 03:31:55;;;;;;;13.43;9.10;;;;;;;;;;4947498;29;20039;-95
2023/07/14 03:34:26;;;;;;;10.48;8.00;;;;;;;;;;4963830;29;20069;-94
2023/07/14 03:36:53;;;;;;;13.43;8.88;;;;;;;;;;4982156;28;20012;-94
2023/07/14 03:39:22;;;;;;;13.40;8.55;;;;;;;;;;4968952;23;20056;-95
2023/07/14 03:41:48;;;;;;;10.20;8.65;;;;;;;;;;4916758;29;20024;-95
2023/07/14 03:44:15;;;;;;;11.35;8.90;;;;;;;;;;4905248;29;20473;-95
2023/07/14 03:46:41;;;;;;;9.40;7.70;;;;;;;;;;4904796;29;20489;-96
2023/07/14 03:49:07;;;;;;;11.95;8.20;;;;;;;;;;4904500;29;20119;-96
2023/07/14 03:51:34;;;;;;;12.35;8.23;;;;;;;;;;4907021;29;20036;-93
2023/07/14 03:54:00;;;;;;;13.57;7.72;;;;;;;;;;4904989;29;20040;-94
2023/07/14 03:56:27;;;;;;;9.73;7.30;;;;;;;;;;4904395;29;20036;-95
2023/07/14 03:58:53;;;;;;;10.43;5.97;;;;;;;;;;4906836;29;20032;-94
2023/07/14 04:01:19;;;;;;;7.05;3.67;;;;;;;;;;4906671;29;20025;-96
2023/07/14 04:03:49;;;;;;;7.50;5.00;;;;;;;;;;4905371;29;20038;-94
2023/07/14 04:08:52;;;;;;;8.48;4.25;;;;;;;;;;4920162;29;20079;-94
2023/07/14 04:13:56;;;;;;;11.63;3.80;;;;;;;;;;5145315;23;20055;-94
2023/07/14 04:16:27;;;;;;;5.80;3.22;;;;;;;;;;4905262;29;20028;-94
2023/07/14 04:18:53;;;;;;;8.13;3.70;;;;;;;;;;4905552;29;20032;-93
2023/07/14 04:21:24;;;;;;;6.65;4.40;;;;;;;;;;5220703;23;20052;-95
2023/07/14 04:23:53;;;;;;;7.38;4.30;;;;;;;;;;5010730;23;20027;-94
2023/07/14 04:26:26;;;;;;;5.53;3.50;;;;;;;;;;5038012;23;20027;-95
2023/07/14 04:28:55;;;;;;;5.17;3.37;;;;;;;;;;4905166;29;20055;-96
2023/07/14 04:31:24;;;;;;;5.22;3.08;;;;;;;;;;4973713;23;20288;-95
2023/07/14 04:36:30;;;;;;;7.03;3.58;;;;;;;;;;5220474;23;20063;-94
2023/07/14 04:39:03;;;;;;;5.15;2.85;;;;;;;;;;4905866;29;20464;-94
2023/07/14 04:44:07;;;;;;;6.05;3.90;;;;;;;;;;5343425;23;25059;-96
2023/07/14 04:46:33;;;;;;;7.53;3.85;;;;;;;;;;4912573;29;20032;-96
2023/07/14 04:48:59;;;;;;;9.07;4.30;;;;;;;;;;5234451;23;20110;-95
2023/07/14 04:51:26;;;;;;;6.03;2.70;;;;;;;;;;4903768;29;20044;-96
2023/07/14 04:56:32;;;;;;;6.30;3.65;;;;;;;;;;4923465;29;20052;-93
2023/07/14 04:58:59;;;;;;;5.43;3.00;;;;;;;;;;4926403;29;20127;-93
2023/07/14 05:01:28;;;;;;;5.10;2.90;;;;;;;;;;4923793;29;20031;-93
2023/07/14 05:04:07;;;;;;;6.68;2.83;;;;;;;;;;4909988;29;20044;-94
2023/07/14 05:06:36;;;;;;;4.47;3.33;;;;;;;;;;4918622;29;20431;-93
2023/07/14 05:09:14;;;;;;;4.95;2.80;;;;;;;;;;4917050;29;20426;-93
2023/07/14 05:11:41;;;;;;;5.82;3.00;;;;;;;;;;4919440;29;20088;-93
2023/07/14 05:14:07;;;;;;;3.53;2.70;;;;;;;;;;5022578;23;20051;-93
2023/07/14 05:16:33;;;;;;;5.47;2.90;;;;;;;;;;4956917;29;20027;-93
2023/07/14 05:19:02;;;;;;;4.97;3.30;;;;;;;;;;4955306;29;20114;-96
2023/07/14 05:21:32;;;;;;;6.68;2.83;;;;;;;;;;4956396;29;20398;-90
2023/07/14 05:23:58;;;;;;;6.95;3.30;;;;;;;;;;4952908;29;20065;-92
2023/07/14 05:26:24;;;;;;;4.97;3.03;;;;;;;;;;4953341;29;20024;-89
2023/07/14 05:28:50;;;;;;;5.20;2.58;;;;;;;;;;4953729;28;20067;-91
2023/07/14 05:31:16;;;;;;;5.32;2.72;;;;;;;;;;4953650;29;20039;-91
2023/07/14 05:34:01;;;;;;;5.80;2.88;;;;;;;;;;4953466;29;20028;-96
2023/07/14 05:36:27;;;;;;;4.38;2.47;;;;;;;;;;4953203;29;20114;-93
2023/07/14 05:38:53;;;;;;;6.00;2.65;;;;;;;;;;4921824;29;20047;-91
2023/07/14 05:41:19;;;;;;;3.58;2.15;;;;;;;;;;4921581;29;20032;-92
2023/07/14 05:43:48;;;;;;;2.83;2.00;;;;;;;;;;4921430;29;20086;-93
2023/07/14 05:46:14;;;;;;;3.97;2.40;;;;;;;;;;4921706;29;20190;-93
2023/07/14 05:48:47;;;;;;;3.65;2.15;;;;;;;;;;4938746;29;20032;-96
2023/07/14 05:51:13;;;;;;;6.25;2.53;;;;;;;;;;4921173;29;20043;-91
2023/07/14 05:53:40;;;;;;;4.82;2.60;;;;;;;;;;4923726;29;20039;-93
2023/07/14 05:59:17;;;;;;;3.88;2.38;;;;;;;;;;4938627;29;20070;-93
2023/07/14 06:01:53;;;;;;;3.33;2.50;;;;;;;;;;4921463;29;20114;-96
2023/07/14 06:04:23;;;;;;;3.08;1.90;;;;;;;;;;4924267;29;20083;-96
2023/07/14 06:10:29;;;;;;;4.00;2.38;;;;;;;;;;4937795;29;20042;-90
2023/07/14 06:13:01;;;;;;;3.60;2.40;;;;;;;;;;4940047;29;20551;-93
2023/07/14 06:15:37;;;;;;;3.47;1.90;;;;;;;;;;4940550;29;20102;-92
2023/07/14 06:18:10;;;;;;;5.10;1.98;;;;;;;;;;4959436;29;20034;-91
2023/07/14 06:20:36;;;;;;;;;;;;;;;;;;4941513;29;20031;-91
2023/07/14 06:23:05;;;;;;;3.35;2.40;;;;;;;;;;4977699;28;19952;-92
2023/07/14 06:25:31;;;;;;;4.57;2.40;;;;;;;;;;4945578;28;20042;-94
2023/07/14 06:27:57;;;;;;;3.38;2.10;;;;;;;;;;4949324;29;20027;-92
2023/07/14 06:30:26;;;;;;;3.03;1.80;;;;;;;;;;4937445;29;20067;-94
2023/07/14 06:32:52;;;;;;;5.40;2.22;;;;;;;;;;4938890;29;20091;-94
2023/07/14 06:35:25;;;;;;;3.45;2.25;;;;;;;;;;4940948;29;20032;-92
2023/07/14 06:37:51;;;;;;;4.20;2.15;;;;;;;;;;4924513;29;20090;-89
2023/07/14 06:40:20;;;;;;;4.47;2.20;;;;;;;;;;4921518;29;20027;-90
2023/07/14 06:42:50;;;;;;;4.25;1.83;;;;;;;;;;4920562;29;20036;-92
2023/07/14 06:45:25;;;;;;;2.90;1.77;;;;;;;;;;4920591;29;20424;-93
2023/07/14 06:47:51;;;;;;;4.75;2.20;;;;;;;;;;4921111;29;20127;-93
2023/07/14 06:50:17;;;;;;;3.92;1.80;;;;;;;;;;4920549;29;20027;-93
2023/07/14 06:52:57;;;;;;;2.88;2.15;;;;;;;;;;4927405;29;20038;-96
2023/07/14 06:55:23;;;;;;;4.38;2.20;;;;;;;;;;4921712;29;20039;-92
2023/07/14 06:57:53;;;;;;;2.30;1.50;;;;;;;;;;4941779;29;20016;-93
2023/07/14 07:00:24;;;;;;;3.72;1.92;;;;;;;;;;4961227;29;20028;-94
2023/07/14 07:02:50;;;;;;;3.00;1.70;;;;;;;;;;4921971;29;20046;-93
2023/07/14 07:05:16;;;;;;;2.83;1.55;;;;;;;;;;4920162;29;20063;-94
2023/07/14 07:07:49;;;;;;;9.32;2.00;;;;;;;;;;4920883;29;20031;-92
2023/07/14 07:10:15;;;;;;;4.18;1.60;;;;;;;;;;4920031;29;20040;-92
2023/07/14 07:12:58;;;;;;;2.10;1.30;;;;;;;;;;4927378;29;20040;-92
2023/07/14 07:15:24;;;;;;;2.03;1.30;;;;;;;;;;4920322;29;20048;-93
2023/07/14 07:17:50;;;;;;;2.67;1.40;;;;;;;;;;4921814;29;20036;-92
2023/07/14 07:20:28;;;;;;;4.07;1.50;;;;;;;;;;4920850;29;20039;-89
2023/07/14 07:22:54;;;;;;;2.80;1.30;;;;;;;;;;4920434;29;20027;-90
2023/07/14 07:25:20;;;;;;;2.80;1.40;;;;;;;;;;4919964;29;20170;-88
2023/07/14 07:27:49;;;;;;;2.75;1.58;;;;;;;;;;4919943;29;20024;-94
2023/07/14 07:33:36;;;;;;;2.67;1.10;;;;;;;;;;4937381;29;20035;-92
2023/07/14 07:36:14;;;;;;;4.82;1.42;;;;;;;;;;4919860;29;20031;-89
2023/07/14 07:38:49;;;;;;;9.10;1.40;;;;;;;;;;4919881;29;20067;-94
2023/07/14 07:41:25;;;;;;;3.85;1.30;;;;;;;;;;4919619;29;20103;-90
2023/07/14 07:43:52;;;;;;;2.58;1.00;;;;;;;;;;4920438;29;20024;-90
2023/07/14 07:46:22;;;;;;;1.75;1.00;;;;;;;;;;4920478;29;20082;-95
2023/07/14 07:49:06;;;;;;;2.45;1.10;;;;;;;;;;4921587;29;20051;-90
2023/07/14 07:51:46;;;;;;;5.68;1.20;;;;;;;;;;4920101;29;20131;-91
2023/07/14 07:54:49;;;;;;;2.58;1.17;;;;;;;;;;4920939;29;20032;-95
2023/07/14 07:57:17;;;;;;;2.88;1.13;;;;;;;;;;4913918;29;20032;-89
2023/07/14 07:59:43;;;;;;;4.50;1.30;;;;;;;;;;4919419;29;20035;-93
2023/07/14 08:03:17;;;;;;;3.75;1.10;;;;;;;;;;4921004;29;20119;-91
2023/07/14 08:08:39;;;;;;;1.95;0.90;;;;;;;;;;4863717;29;20129;-89
2023/07/14 08:11:09;;;;;;;3.33;0.90;;;;;;;;;;4843995;29;20069;-94
2023/07/14 08:13:35;;;;;;;1.50;0.90;;;;;;;;;;4866153;29;20072;-95
2023/07/14 08:16:15;;;;;;;2.25;1.00;;;;;;;;;;4852813;29;20117;-92
2023/07/14 08:18:44;;;;;;;1.92;0.90;;;;;;;;;;4847334;29;20057;-95
2023/07/14 08:34:04;;;;;;;2.55;0.80;;;;;;;;;;4918609;29;20557;-90
2023/07/14 08:36:42;;;;;;;2.08;0.93;;;;;;;;;;4901759;29;20044;-96
2023/07/14 08:39:08;;;;;;;3.00;0.95;;;;;;;;;;4905341;29;20035;-91
2023/07/14 08:41:50;;;;;;;;;;;;;;;;;;;;;
2023/07/14 08:45:01;;;;;;;1.65;1.00;;;;;;;;;;4899858;29;20028;-94
2023/07/14 08:47:32;;;;;;;2.80;0.90;;;;;;;;;;4839248;29;20029;-94
2023/07/14 08:50:03;;;;;;;1.83;0.73;;;;;;;;;;4876048;29;20072;-95
2023/07/14 08:52:42;;;;;;;3.05;0.80;;;;;;;;;;4884736;29;20121;-95
2023/07/14 08:55:29;;;;;;;2.13;0.93;;;;;;;;;;4884518;29;20060;-93
2023/07/14 08:58:00;;;;;;;2.17;0.93;;;;;;;;;;4896479;29;20058;-96
2023/07/14 09:00:40;;;;;;;2.20;0.80;;;;;;;;;;4899593;29;20072;-94
2023/07/14 09:03:35;;;;;;;1.90;0.85;;;;;;;;;;4907568;29;20043;-93
2023/07/14 09:21:48;;;;;;;5.50;1.13;;;;;;;;;;4899970;29;20193;-94
2023/07/14 09:24:33;;;;;;;3.00;1.17;;;;;;;;;;4899818;29;20036;-93
2023/07/14 09:27:03;;;;;;;2.38;1.20;;;;;;;;;;4904447;29;20021;-91
2023/07/14 09:29:54;;;;;;;2.17;1.13;;;;;;;;;;5375107;23;20853;-90
2023/07/14 09:32:50;;;;;;;2.10;0.93;;;;;;;;;;4931232;29;20059;-94
2023/07/14 09:35:21;;;;;;;2.60;1.17;;;;;;;;;;4925341;29;20056;-94
2023/07/14 09:37:58;;;;;;;3.83;1.17;;;;;;;;;;4902597;29;20055;-96
2023/07/14 09:40:44;;;;;;;2.20;1.00;;;;;;;;;;4903000;29;20489;-94
2023/07/14 09:43:23;;;;;;;2.92;1.25;;;;;;;;;;4902310;29;20031;-92
2023/07/14 09:45:58;;;;;;;2.40;1.00;;;;;;;;;;4902592;29;20552;-92
2023/07/14 09:48:44;;;;;;;2.28;1.20;;;;;;;;;;4901940;29;20040;-92
2023/07/14 09:54:05;;;;;;;2.90;1.23;;;;;;;;;;4870063;29;20132;-93
2023/07/14 10:02:36;;;;;;;4.22;1.30;;;;;;;;;;4939459;29;20071;-92
2023/07/14 10:05:21;;;;;;;3.97;1.30;;;;;;;;;;4925102;29;20392;-92
2023/07/14 10:07:53;;;;;;;3.95;1.30;;;;;;;;;;4922381;29;20117;-95
2023/07/14 10:10:32;;;;;;;3.13;1.37;;;;;;;;;;4959353;23;20061;-94
2023/07/14 10:16:18;;;;;;;2.53;1.25;;;;;;;;;;5025710;23;20099;-95
2023/07/14 10:18:45;;;;;;;;;;;;;;;;;;4903957;29;20032;-94
2023/07/14 10:21:20;;;;;;;2.53;1.15;;;;;;;;;;4903943;29;20341;-91
2023/07/14 10:24:18;;;;;;;5.15;1.48;;;;;;;;;;4901681;29;20032;-90
2023/07/14 10:26:54;;;;;;;6.00;1.30;;;;;;;;;;4887626;29;20043;-93
2023/07/14 10:29:25;;;;;;;3.22;1.40;;;;;;;;;;4902001;29;20036;-91
2023/07/14 10:32:12;;;;;;;3.67;1.40;;;;;;;;;;4901943;29;20127;-91
2023/07/14 10:34:53;;;;;;;3.00;1.27;;;;;;;;;;4901627;29;20056;-90
2023/07/14 10:46:23;;;;;;;5.03;1.42;;;;;;;;;;5082138;23;20052;-92
2023/07/14 10:56:45;;;;;;;2.17;1.20;;;;;;;;;;4886523;29;20049;-94
2023/07/14 11:02:36;;;;;;;2.47;1.20;;;;;;;;;;4872918;29;20059;-94
2023/07/14 11:05:33;;;;;;;2.65;1.30;;;;;;;;;;4900571;29;20041;-94
2023/07/14 11:08:16;;;;;;;3.72;1.50;;;;;;;;;;4883609;29;20442;-92
2023/07/14 11:10:55;;;;;;;6.03;1.65;;;;;;;;;;4883863;29;20025;-94
2023/07/14 11:13:41;;;;;;;4.57;1.40;;;;;;;;;;4883515;29;20051;-92
2023/07/14 11:19:40;;;;;;;13.27;1.60;;;;;;;;;;4839842;29;20046;-93
2023/07/14 11:25:22;;;;;;;3.25;1.35;;;;;;;;;;4871337;29;20036;-93
2023/07/14 11:28:25;;;;;;;2.60;1.48;;;;;;;;;;4885913;29;20032;-92
2023/07/14 11:34:33;;;;;;;4.90;1.48;;;;;;;;;;4903435;29;20041;-95
2023/07/14 11:40:40;;;;;;;3.97;1.40;;;;;;;;;;4795049;30;20042;-94
2023/07/14 11:46:31;;;;;;;;;;;;;;;;;;;;;
2023/07/14 11:49:10;;;;;;;1.80;1.10;;;;;;;;;;4923802;29;20117;-94
2023/07/14 11:52:08;;;;;;;;;;;;;;;;;;;;;
2023/07/14 11:58:30;;;;;;;3.63;1.27;;;;;;;;;;4827676;29;20125;-95
2023/07/14 12:01:12;;;;;;;5.55;1.60;;;;;;;;;;5010228;23;20042;-93
2023/07/14 12:03:45;;;;;;;3.92;1.33;;;;;;;;;;4924647;29;20024;-93
2023/07/14 12:06:30;;;;;;;3.92;1.40;;;;;;;;;;4924037;29;20429;-94
2023/07/14 12:09:16;;;;;;;3.05;1.50;;;;;;;;;;4923612;29;20039;-94
2023/07/14 12:14:38;;;;;;;2.00;1.40;;;;;;;;;;4902688;23;20029;-95
2023/07/14 12:17:12;;;;;;;3.60;1.75;;;;;;;;;;4900609;29;20047;-95
2023/07/14 12:20:01;;;;;;;2.88;1.50;;;;;;;;;;4904869;29;20035;-93
2023/07/14 12:22:53;;;;;;;4.78;1.55;;;;;;;;;;4895387;29;20108;-94
2023/07/14 12:25:40;;;;;;;4.65;1.77;;;;;;;;;;4940683;23;20021;-95
2023/07/14 12:37:12;;;;;;;4.10;1.70;;;;;;;;;;4929726;29;20026;-96
2023/07/14 12:39:57;;;;;;;3.95;1.70;;;;;;;;;;4914647;29;20016;-96
2023/07/14 12:54:21;;;;;;;3.30;1.55;;;;;;;;;;4922276;29;20078;-94
2023/07/14 12:56:47;;;;;;;3.15;1.95;;;;;;;;;;4911143;29;20023;-92
2023/07/14 12:59:36;;;;;;;4.20;1.63;;;;;;;;;;4906013;29;20025;-94
2023/07/14 13:02:10;;;;;;;4.47;1.67;;;;;;;;;;4908727;29;20039;-95
2023/07/14 13:07:50;;;;;;;3.20;2.47;;;;;;;;;;5109833;23;20067;-93
2023/07/14 13:10:40;;;;;;;4.97;1.52;;;;;;;;;;4911313;29;20028;-95
2023/07/14 13:13:10;;;;;;;3.42;1.40;;;;;;;;;;4904218;29;20032;-96
2023/07/14 13:15:37;;;;;;;8.38;7.10;;;;;;;;;;4903942;29;20362;-96
2023/07/14 13:18:36;;;;;;;2.55;1.70;;;;;;;;;;4903212;29;20039;-96
2023/07/14 13:21:07;;;;;;;4.43;1.40;;;;;;;;;;4871721;29;20074;-92
2023/07/14 13:23:34;;;;;;;3.55;1.52;;;;;;;;;;4921158;29;20529;-96
2023/07/14 13:26:06;;;;;;;3.22;1.58;;;;;;;;;;4913549;29;20012;-95
2023/07/14 13:28:37;;;;;;;3.50;1.52;;;;;;;;;;4984440;23;20180;-96
2023/07/14 13:31:26;;;;;;;5.55;1.33;;;;;;;;;;4930196;29;20039;-95
2023/07/14 13:33:52;;;;;;;5.18;1.50;;;;;;;;;;4925761;29;20103;-95
2023/07/14 13:36:48;;;;;;;2.97;1.30;;;;;;;;;;4923487;29;20047;-93
2023/07/14 13:39:37;;;;;;;4.70;1.85;;;;;;;;;;4920208;29;20035;-94
2023/07/14 13:42:32;;;;;;;4.15;1.70;;;;;;;;;;4920831;29;20031;-92
2023/07/14 13:45:02;;;;;;;2.00;1.10;;;;;;;;;;4922976;29;20059;-90
2023/07/14 13:47:44;;;;;;;3.55;1.30;;;;;;;;;;4920830;29;20126;-93
2023/07/14 13:50:22;;;;;;;2.63;1.10;;;;;;;;;;4920450;29;20035;-95
2023/07/14 13:52:49;;;;;;;2.60;1.30;;;;;;;;;;4921139;29;20045;-94
2023/07/14 13:55:19;;;;;;;3.42;1.30;;;;;;;;;;4921621;29;20023;-94
2023/07/14 13:57:59;;;;;;;2.08;1.13;;;;;;;;;;4920230;29;20058;-95
2023/07/14 14:00:37;;;;;;;2.85;1.38;;;;;;;;;;4920529;29;20034;-91
2023/07/14 14:03:11;;;;;;;4.10;1.50;;;;;;;;;;4920883;29;20028;-96
2023/07/14 14:05:41;;;;;;;2.15;1.23;;;;;;;;;;4920527;29;20115;-92
2023/07/14 14:08:19;;;;;;;4.15;1.60;;;;;;;;;;4921048;29;20124;-91
2023/07/14 14:10:49;;;;;;;3.45;1.50;;;;;;;;;;4920988;29;20032;-94
2023/07/14 14:13:27;;;;;;;4.28;1.30;;;;;;;;;;4922566;29;20032;-96
2023/07/14 14:15:53;;;;;;;5.32;1.80;;;;;;;;;;4920435;29;20032;-94
2023/07/14 14:18:31;;;;;;;3.70;1.30;;;;;;;;;;4920590;29;20038;-94
2023/07/14 14:21:01;;;;;;;6.63;2.05;;;;;;;;;;4921210;29;20492;-95
2023/07/14 14:26:47;;;;;;;5.32;1.42;;;;;;;;;;4925308;29;20082;-92
2023/07/14 14:29:14;;;;;;;5.38;1.80;;;;;;;;;;4917415;29;20048;-92
2023/07/14 14:31:40;;;;;;;4.93;1.73;;;;;;;;;;4901987;29;20046;-90
2023/07/14 14:34:10;;;;;;;4.18;1.52;;;;;;;;;;4878612;29;20435;-90
2023/07/14 14:36:36;;;;;;;3.58;1.55;;;;;;;;;;4879879;29;20037;-92
2023/07/14 14:39:12;;;;;;;6.90;1.40;;;;;;;;;;4879731;29;20028;-93
2023/07/14 14:41:38;;;;;;;5.22;1.73;;;;;;;;;;4880599;29;20124;-92
2023/07/14 14:44:20;;;;;;;5.32;1.40;;;;;;;;;;4901571;29;20044;-91
2023/07/14 14:46:47;;;;;;;5.60;1.60;;;;;;;;;;4901273;29;20032;-92
2023/07/14 14:49:18;;;;;;;3.40;1.55;;;;;;;;;;4894019;29;20036;-92
2023/07/14 14:51:45;;;;;;;4.47;1.50;;;;;;;;;;4901545;29;20115;-93
2023/07/14 14:54:11;;;;;;;4.15;1.48;;;;;;;;;;4901523;29;20028;-91
2023/07/14 14:56:43;;;;;;;5.05;1.48;;;;;;;;;;4901207;29;20087;-93
2023/07/14 14:59:16;;;;;;;3.55;1.30;;;;;;;;;;4891558;29;20029;-92
2023/07/14 15:01:42;;;;;;;3.55;1.42;;;;;;;;;;4883672;29;20029;-91
2023/07/14 15:04:37;;;;;;;4.57;1.50;;;;;;;;;;4886718;29;20131;-89
2023/07/14 15:07:07;;;;;;;3.03;1.52;;;;;;;;;;4885367;29;20036;-90
2023/07/14 15:09:33;;;;;;;7.40;1.77;;;;;;;;;;4890504;29;20017;-90
2023/07/14 15:11:59;;;;;;;4.57;1.63;;;;;;;;;;4895272;29;20037;-89
2023/07/14 15:14:30;;;;;;;4.05;1.50;;;;;;;;;;4895943;29;20045;-90
2023/07/14 15:16:57;;;;;;;4.45;1.40;;;;;;;;;;4889916;29;20025;-90
2023/07/14 15:19:29;;;;;;;5.38;1.40;;;;;;;;;;4891004;29;20045;-89
2023/07/14 15:24:52;;;;;;;4.22;1.42;;;;;;;;;;4883839;29;19915;-90
2023/07/14 15:27:38;;;;;;;4.70;1.42;;;;;;;;;;4882943;29;20491;-90
2023/07/14 15:30:09;;;;;;;2.50;1.40;;;;;;;;;;4882578;29;20036;-90
2023/07/14 15:32:38;;;;;;;3.23;1.37;;;;;;;;;;4881921;29;20583;-90
2023/07/14 15:35:24;;;;;;;3.22;1.42;;;;;;;;;;4887707;29;20040;-89
2023/07/14 15:37:54;;;;;;;4.50;1.30;;;;;;;;;;4902515;29;20028;-91
2023/07/14 15:40:28;;;;;;;5.50;1.30;;;;;;;;;;4907380;29;20032;-91
2023/07/14 15:43:14;;;;;;;;;;;;;;;;;;;;;
2023/07/14 15:45:48;;;;;;;3.75;1.38;;;;;;;;;;4921886;29;20032;-91
2023/07/14 15:48:18;;;;;;;4.32;1.45;;;;;;;;;;4907548;29;20070;-91
2023/07/14 15:50:48;;;;;;;2.85;1.33;;;;;;;;;;4921135;29;20028;-92
2023/07/14 15:53:27;;;;;;;3.90;1.48;;;;;;;;;;4899834;29;20036;-91
2023/07/14 15:55:56;;;;;;;3.13;1.30;;;;;;;;;;4904516;29;20036;-92
2023/07/14 15:58:27;;;;;;;4.82;1.55;;;;;;;;;;4910912;29;20092;-91
2023/07/14 16:01:01;;;;;;;4.32;1.60;;;;;;;;;;4921268;29;20032;-92
2023/07/14 16:03:30;;;;;;;3.75;1.40;;;;;;;;;;4906050;29;20032;-90
2023/07/14 16:06:21;;;;;;;3.90;1.40;;;;;;;;;;4917845;29;20127;-91
2023/07/14 16:08:48;;;;;;;3.15;1.40;;;;;;;;;;4906972;29;20088;-91
2023/07/14 16:11:26;;;;;;;4.35;1.27;;;;;;;;;;4905599;29;20046;-94
2023/07/14 16:13:58;;;;;;;3.55;1.52;;;;;;;;;;4903275;29;20119;-91
2023/07/14 16:16:25;;;;;;;2.33;1.58;;;;;;;;;;4921050;29;20043;-88
2023/07/14 16:18:51;;;;;;;3.55;1.40;;;;;;;;;;4904404;29;20060;-88
2023/07/14 16:21:25;;;;;;;3.30;1.40;;;;;;;;;;4904248;29;20036;-89
2023/07/14 16:23:52;;;;;;;5.30;1.75;;;;;;;;;;4903554;29;20020;-88
2023/07/14 16:26:22;;;;;;;4.00;1.40;;;;;;;;;;4903788;29;20028;-89
2023/07/14 16:28:48;;;;;;;4.75;1.40;;;;;;;;;;4905134;29;20493;-90
2023/07/14 16:31:20;;;;;;;4.45;1.50;;;;;;;;;;4906037;29;20458;-90
2023/07/14 16:33:49;;;;;;;6.03;1.48;;;;;;;;;;4904095;29;20035;-89
2023/07/14 16:39:28;;;;;;;2.85;1.50;;;;;;;;;;4902527;29;20446;-90
2023/07/14 16:41:54;;;;;;;3.35;1.38;;;;;;;;;;4900689;29;20036;-92
2023/07/14 16:44:20;;;;;;;2.80;1.50;;;;;;;;;;4900641;29;20036;-94
2023/07/14 16:46:56;;;;;;;4.15;1.63;;;;;;;;;;4902949;29;20059;-91
2023/07/14 16:49:25;;;;;;;2.75;1.30;;;;;;;;;;4921423;29;20031;-94
2023/07/14 16:52:00;;;;;;;3.58;1.40;;;;;;;;;;4920308;29;20068;-94
2023/07/14 16:54:29;;;;;;;2.63;1.40;;;;;;;;;;4903521;29;20024;-93
2023/07/14 16:57:05;;;;;;;2.65;1.20;;;;;;;;;;4904862;29;20036;-92
2023/07/14 16:59:32;;;;;;;4.32;1.50;;;;;;;;;;4926600;29;20047;-90
2023/07/14 17:05:04;;;;;;;4.15;1.50;;;;;;;;;;4921021;29;20107;-90
2023/07/14 17:07:37;;;;;;;9.00;2.00;;;;;;;;;;4901789;29;20032;-93
2023/07/14 17:10:24;;;;;;;3.30;1.30;;;;;;;;;;4921203;29;20072;-89
2023/07/14 17:12:58;;;;;;;7.25;1.90;;;;;;;;;;4913389;29;20048;-92
2023/07/14 17:15:28;;;;;;;3.85;1.80;;;;;;;;;;4914002;29;20028;-92
2023/07/14 17:18:16;;;;;;;3.92;1.75;;;;;;;;;;4904321;29;20051;-92
2023/07/14 17:20:43;;;;;;;2.90;1.33;;;;;;;;;;4904326;29;20028;-94
2023/07/14 17:23:11;;;;;;;4.25;1.60;;;;;;;;;;4903578;29;20036;-91
2023/07/14 17:25:37;;;;;;;3.35;1.42;;;;;;;;;;4903085;29;20474;-90
2023/07/14 17:28:04;;;;;;;6.85;1.70;;;;;;;;;;4903552;29;20055;-90
2023/07/14 17:30:31;;;;;;;6.43;1.73;;;;;;;;;;4903099;29;20110;-88
2023/07/14 17:33:03;;;;;;;2.72;1.50;;;;;;;;;;4902905;29;20036;-90
2023/07/14 17:35:30;;;;;;;4.45;1.50;;;;;;;;;;4903501;29;20024;-87
2023/07/14 17:38:02;;;;;;;4.50;1.58;;;;;;;;;;4902223;29;20405;-92
2023/07/14 17:40:30;;;;;;;3.40;1.45;;;;;;;;;;4902255;29;20070;-90
2023/07/14 17:42:57;;;;;;;2.42;1.35;;;;;;;;;;4903388;29;20036;-90
2023/07/14 17:45:24;;;;;;;3.65;1.40;;;;;;;;;;4902364;29;20043;-88
2023/07/14 17:47:51;;;;;;;5.10;1.50;;;;;;;;;;4902212;29;20139;-87